Time;durP1;ratioP1;P1;durP2;ratioP2;P2;SDS_P1;SDS_P2;PMS_P1;PMS_P2;Temp;Humidity;BMP_temperature;BMP_pressure;BME280_temperature;BME280_humidity;BME280_pressure;Samples;Min_cycle;Max_cycle;Signal;HPM_P1;HPM_P2
2023/10/12 00:01:31;;;;;;;;;;;;;;;21.98;49.17;95862.25;10441918;28;1967;-54
2023/10/12 00:06:37;;;;;;;;;;;;;;;21.97;49.14;95855.38;10433509;28;2001;-56
2023/10/12 00:11:40;;;;;;;;;;;;;;;21.97;49.03;95857.25;10439015;28;2041;-57
2023/10/12 00:16:43;;;;;;;;;;;;;;;21.98;49.11;95853.53;10437681;28;1957;-56
2023/10/12 00:21:43;;;;;;;;;;;;;;;21.96;49.10;95853.81;10434558;28;1979;-56
2023/10/12 00:26:44;;;;;;;;;;;;;;;21.96;49.21;95856.47;10439829;28;1873;-56
2023/10/12 00:31:46;;;;;;;;;;;;;;;21.95;49.12;95844.31;10436809;28;2553;-57
2023/10/12 00:36:52;;;;;;;;;;;;;;;21.96;49.22;95839.84;10432586;28;1751;-53
2023/10/12 00:41:52;;;;;;;;;;;;;;;21.95;49.23;95835.63;10432501;28;5134;-57
2023/10/12 00:46:59;;;;;;;;;;;;;;;21.95;49.00;95819.81;10437361;28;1951;-56
2023/10/12 00:52:08;;;;;;;;;;;;;;;21.94;49.03;95816.38;10431776;28;1894;-57
2023/10/12 00:57:09;;;;;;;;;;;;;;;21.94;48.92;95826.94;10433536;28;1932;-56
2023/10/12 01:02:09;;;;;;;;;;;;;;;21.94;49.09;95826.13;10436759;28;1978;-57
2023/10/12 01:07:11;;;;;;;;;;;;;;;21.93;49.17;95824.56;10438983;28;1952;-57
2023/10/12 01:12:14;;;;;;;;;;;;;;;21.93;49.07;95814.78;10447143;28;1966;-56
2023/10/12 01:17:23;;;;;;;;;;;;;;;21.93;48.86;95808.75;10445972;28;2523;-56
2023/10/12 01:22:27;;;;;;;;;;;;;;;21.93;48.78;95804.22;10443561;28;1949;-57
2023/10/12 01:27:27;;;;;;;;;;;;;;;21.92;49.13;95802.66;10440516;28;1922;-57
2023/10/12 01:32:27;;;;;;;;;;;;;;;21.92;48.72;95801.88;10443797;28;2235;-56
2023/10/12 01:37:28;;;;;;;;;;;;;;;21.91;48.66;95793.16;10442109;28;2010;-57
2023/10/12 01:47:40;;;;;;;;;;;;;;;21.91;48.73;95803.72;10441544;28;2098;-57
2023/10/12 01:52:44;;;;;;;;;;;;;;;21.92;48.95;95801.88;10440342;28;1960;-57
2023/10/12 01:57:52;;;;;;;;;;;;;;;21.92;48.92;95805.31;10441237;28;1943;-57
2023/10/12 02:08:11;;;;;;;;;;;;;;;21.92;48.72;95815.06;10444982;28;1956;-57
2023/10/12 02:13:12;;;;;;;;;;;;;;;21.90;48.58;95804.81;10441008;28;2234;-57
2023/10/12 02:18:15;;;;;;;;;;;;;;;21.89;48.47;95808.50;10445457;28;2042;-56
2023/10/12 02:23:15;;;;;;;;;;;;;;;21.88;48.29;95807.69;10439460;28;1953;-53
2023/10/12 02:28:22;;;;;;;;;;;;;;;21.87;48.45;95805.34;10438855;28;2286;-56
2023/10/12 02:33:27;;;;;;;;;;;;;;;21.87;48.20;95797.44;10442429;28;1890;-57
2023/10/12 02:38:28;;;;;;;;;;;;;;;21.86;47.82;95806.44;10440654;28;1980;-56
2023/10/12 02:43:31;;;;;;;;;;;;;;;21.84;47.94;95805.91;10434133;28;1931;-56
2023/10/12 02:48:36;;;;;;;;;;;;;;;21.83;47.82;95799.06;10441192;28;2578;-55
2023/10/12 02:53:39;;;;;;;;;;;;;;;21.81;47.72;95796.72;10443622;28;2060;-55
2023/10/12 02:58:44;;;;;;;;;;;;;;;21.80;47.67;95804.88;10437303;28;1981;-55
2023/10/12 03:03:54;;;;;;;;;;;;;;;21.79;47.35;95801.44;10443476;28;2390;-56
2023/10/12 03:14:13;;;;;;;;;;;;;;;21.78;47.14;95807.00;10443510;28;1904;-57
2023/10/12 03:24:38;;;;;;;;;;;;;;;21.76;47.33;95815.19;10443162;28;1993;-56
2023/10/12 03:29:45;;;;;;;;;;;;;;;21.76;47.25;95809.91;10441075;28;1887;-56
2023/10/12 03:44:54;;;;;;;;;;;;;;;21.74;46.80;95804.13;10436992;28;1998;-55
2023/10/12 03:49:57;;;;;;;;;;;;;;;21.74;46.77;95801.50;10436667;28;2078;-54
2023/10/12 04:05:35;;;;;;;;;;;;;;;21.71;46.39;95790.72;10442574;28;1947;-56
2023/10/12 04:21:06;;;;;;;;;;;;;;;21.69;46.40;95792.84;10432500;28;2581;-56
2023/10/12 04:31:20;;;;;;;;;;;;;;;21.67;46.34;95798.41;10434384;28;1957;-57
2023/10/12 04:46:48;;;;;;;;;;;;;;;21.67;46.24;95802.88;10445733;28;1933;-57
2023/10/12 04:52:05;;;;;;;;;;;;;;;21.66;46.04;95804.72;10443676;28;1970;-57
2023/10/12 05:12:18;;;;;;;;;;;;;;;21.65;46.01;95807.66;10446246;28;1947;-55
2023/10/12 05:17:18;;;;;;;;;;;;;;;21.64;45.73;95811.34;10442993;28;2144;-56
2023/10/12 05:22:21;;;;;;;;;;;;;;;21.64;45.72;95806.06;10442256;28;2075;-57
2023/10/12 05:27:38;;;;;;;;;;;;;;;21.63;45.76;95813.22;10439309;28;2113;-57
2023/10/12 05:32:43;;;;;;;;;;;;;;;21.63;45.81;95812.44;10445382;28;2042;-56
2023/10/12 05:37:49;;;;;;;;;;;;;;;21.63;45.73;95817.69;10440871;28;2262;-56
2023/10/12 05:42:50;;;;;;;;;;;;;;;21.63;45.68;95822.97;10443033;28;4657;-55
2023/10/12 05:47:52;;;;;;;;;;;;;;;21.63;45.58;95830.91;10444804;28;2586;-56
2023/10/12 05:52:53;;;;;;;;;;;;;;;21.62;45.27;95834.59;10438972;28;1900;-57
2023/10/12 05:58:03;;;;;;;;;;;;;;;21.62;45.59;95840.66;10438986;28;1967;-56
2023/10/12 06:03:07;;;;;;;;;;;;;;;21.62;45.56;95839.84;10439631;28;1968;-57
2023/10/12 06:08:12;;;;;;;;;;;;;;;21.63;45.36;95846.72;10438716;28;2192;-56
2023/10/12 06:13:13;;;;;;;;;;;;;;;21.62;45.63;95845.94;10439011;28;2004;-57
2023/10/12 06:18:21;;;;;;;;;;;;;;;21.61;45.74;95848.84;10439246;28;2040;-57
2023/10/12 06:23:22;;;;;;;;;;;;;;;21.62;45.56;95858.31;10440310;28;1980;-56
2023/10/12 06:28:23;;;;;;;;;;;;;;;21.61;45.87;95875.22;10441015;28;1858;-57
2023/10/12 06:33:23;;;;;;;;;;;;;;;21.62;45.95;95874.94;10441067;28;2650;-56
2023/10/12 06:39:02;;;;;;;;;;;;;;;21.63;45.70;95886.28;10441061;28;2069;-57
2023/10/12 06:49:29;;;;;;;;;;;;;;;21.64;45.94;95887.84;10441164;28;1850;-54
2023/10/12 06:54:33;;;;;;;;;;;;;;;21.66;45.71;95885.72;10441237;28;1822;-57
2023/10/12 06:59:35;;;;;;;;;;;;;;;21.66;45.65;95893.63;10436581;28;1924;-57
2023/10/12 07:04:53;;;;;;;;;;;;;;;21.67;46.10;95895.22;10434051;28;1878;-56
2023/10/12 07:09:54;;;;;;;;;;;;;;;21.67;46.43;95898.66;10441279;28;1940;-56
2023/10/12 07:14:55;;;;;;;;;;;;;;;21.69;46.46;95903.66;10435708;28;1817;-56
2023/10/12 07:19:55;;;;;;;;;;;;;;;21.70;46.25;95905.25;10438947;28;2766;-54
2023/10/12 07:24:56;;;;;;;;;;;;;;;21.71;46.63;95904.16;10436418;28;1795;-56
2023/10/12 07:30:15;;;;;;;;;;;;;;;21.74;46.99;95916.81;10437298;28;1870;-55
2023/10/12 07:35:22;;;;;;;;;;;;;;;21.75;46.85;95910.47;10441476;28;1914;-57
2023/10/12 07:40:23;;;;;;;;;;;;;;;21.76;47.09;95909.41;10432812;28;1899;-57
2023/10/12 07:45:28;;;;;;;;;;;;;;;21.77;47.18;95905.69;10434712;28;1993;-57
2023/10/12 07:50:30;;;;;;;;;;;;;;;21.77;47.39;95909.13;10442918;28;1938;-56
2023/10/12 07:55:31;;;;;;;;;;;;;;;21.79;47.51;95908.84;10435881;28;1895;-56
2023/10/12 08:00:34;;;;;;;;;;;;;;;21.79;47.49;95908.84;10435780;28;1898;-56
2023/10/12 08:20:57;;;;;;;;;;;;;;;21.83;47.70;95912.53;10437829;28;1984;-54
2023/10/12 08:25:58;;;;;;;;;;;;;;;21.81;47.75;95918.09;10431047;28;1847;-54
2023/10/12 08:31:00;;;;;;;;;;;;;;;21.82;47.92;95910.97;10429928;28;1862;-57
2023/10/12 08:41:29;;;;;;;;;;;;;;;21.84;48.11;95911.47;10435225;28;4479;-55
2023/10/12 08:52:04;;;;;;;;;;;;;;;21.86;48.23;95914.63;10436746;28;2523;-55
2023/10/12 08:57:02;;;;;;;;;;;;;;;21.88;48.00;95903.78;10432384;28;1803;-55
2023/10/12 09:02:08;;;;;;;;;;;;;;;21.87;48.12;95900.34;10433008;28;1902;-54
2023/10/12 09:07:12;;;;;;;;;;;;;;;21.88;47.69;95895.88;10431734;28;1842;-56
2023/10/12 09:12:13;;;;;;;;;;;;;;;21.88;48.11;95880.81;10431476;28;1905;-56
2023/10/12 09:17:30;;;;;;;;;;;;;;;21.92;48.30;95881.84;10438786;28;1932;-56
2023/10/12 09:22:30;;;;;;;;;;;;;;;21.93;48.26;95883.41;10429136;28;1902;-57
2023/10/12 09:27:36;;;;;;;;;;;;;;;21.95;48.49;95883.91;10434223;28;1559;-57
2023/10/12 09:32:46;;;;;;;;;;;;;;;21.96;48.54;95880.22;10438393;28;4421;-57
2023/10/12 09:37:52;;;;;;;;;;;;;;;21.99;48.58;95881.53;10436901;28;1944;-56
2023/10/12 09:42:54;;;;;;;;;;;;;;;22.00;48.81;95881.22;10436573;28;4740;-56
2023/10/12 09:47:58;;;;;;;;;;;;;;;22.02;48.88;95879.09;10443120;28;1800;-57
2023/10/12 09:52:58;;;;;;;;;;;;;;;22.04;48.65;95869.06;10435282;28;1850;-57
2023/10/12 09:58:12;;;;;;;;;;;;;;;22.07;48.75;95873.00;10435609;28;1709;-57
2023/10/12 10:03:13;;;;;;;;;;;;;;;22.09;49.09;95860.28;10444480;28;1910;-57
2023/10/12 10:08:17;;;;;;;;;;;;;;;22.09;49.14;95865.56;10439400;28;2044;-57
2023/10/12 10:13:37;;;;;;;;;;;;;;;22.09;48.81;95874.25;10434549;28;1896;-56
2023/10/12 10:18:47;;;;;;;;;;;;;;;22.10;48.79;95869.78;10430123;28;1899;-55
2023/10/12 10:23:52;;;;;;;;;;;;;;;22.09;49.09;95866.34;10434566;28;2688;-56
2023/10/12 10:29:04;;;;;;;;;;;;;;;22.11;49.10;95868.72;10433273;28;1964;-56
2023/10/12 10:34:06;;;;;;;;;;;;;;;22.14;49.04;95868.94;10435595;28;1974;-57
2023/10/12 10:44:16;;;;;;;;;;;;;;;22.15;48.96;95859.97;10438984;28;4685;-56
2023/10/12 10:49:16;;;;;;;;;;;;;;;22.18;49.18;95858.59;10440161;28;1916;-57
2023/10/12 10:54:20;;;;;;;;;;;;;;;22.20;49.60;95854.63;10437656;28;1937;-59
2023/10/12 10:59:20;;;;;;;;;;;;;;;22.21;49.31;95860.69;10438436;28;2176;-59
2023/10/12 11:10:03;;;;;;;;;;;;;;;22.18;49.41;95837.47;10429214;28;2564;-59
2023/10/12 11:15:00;;;;;;;;;;;;;;;22.19;48.96;95833.78;10434815;28;1819;-59
2023/10/12 11:20:00;;;;;;;;;;;;;;;22.17;48.99;95836.72;10435931;28;1996;-58
2023/10/12 11:25:01;;;;;;;;;;;;;;;22.17;49.41;95839.34;10436505;28;1885;-59
2023/10/12 11:30:12;;;;;;;;;;;;;;;22.17;49.36;95836.72;10431229;28;1854;-59
2023/10/12 11:35:13;;;;;;;;;;;;;;;22.16;49.27;95834.34;10435440;28;1881;-59
2023/10/12 11:40:26;;;;;;;;;;;;;;;22.16;49.27;95829.84;10433000;28;4460;-59
2023/10/12 11:45:32;;;;;;;;;;;;;;;22.17;49.39;95815.59;10437099;28;1907;-59
2023/10/12 11:50:33;;;;;;;;;;;;;;;22.18;49.74;95817.16;10435269;28;1957;-59
2023/10/12 11:55:33;;;;;;;;;;;;;;;22.18;49.97;95811.88;10437453;28;3078;-60
2023/10/12 12:00:37;;;;;;;;;;;;;;;22.18;49.72;95788.09;10434262;28;1906;-59
2023/10/12 12:05:37;;;;;;;;;;;;;;;22.20;50.20;95796.53;10439420;28;1870;-59
2023/10/12 12:10:53;;;;;;;;;;;;;;;22.20;50.12;95798.38;10436996;28;1870;-59
2023/10/12 12:15:55;;;;;;;;;;;;;;;22.20;50.04;95787.81;10434521;28;1970;-59
2023/10/12 12:20:58;;;;;;;;;;;;;;;22.19;50.13;95786.25;10439029;28;2007;-59
2023/10/12 12:26:07;;;;;;;;;;;;;;;22.19;50.02;95788.91;10441478;28;1815;-59
2023/10/12 12:31:10;;;;;;;;;;;;;;;22.19;49.88;95789.69;10433729;28;1937;-59
2023/10/12 12:36:12;;;;;;;;;;;;;;;22.20;49.91;95804.44;10435926;28;2499;-59
2023/10/12 12:41:18;;;;;;;;;;;;;;;22.22;49.83;95804.16;10437262;28;4646;-60
2023/10/12 12:46:19;;;;;;;;;;;;;;;22.21;50.01;95811.31;10435505;28;1885;-59
2023/10/12 12:51:19;;;;;;;;;;;;;;;22.22;49.86;95806.81;10430770;28;1946;-59
2023/10/12 12:56:20;;;;;;;;;;;;;;;22.22;50.03;95806.81;10438614;28;1894;-60
2023/10/12 13:01:23;;;;;;;;;;;;;;;22.23;50.16;95803.91;10437345;28;1954;-61
2023/10/12 13:06:23;;;;;;;;;;;;;;;22.23;50.30;95806.53;10439945;28;1944;-58
2023/10/12 13:11:25;;;;;;;;;;;;;;;22.24;50.46;95809.94;10435507;28;1871;-58
2023/10/12 13:16:25;;;;;;;;;;;;;;;22.24;50.65;95808.09;10436686;28;2023;-58
2023/10/12 13:21:25;;;;;;;;;;;;;;;22.27;51.01;95806.75;10440425;28;2406;-58
2023/10/12 13:26:26;;;;;;;;;;;;;;;22.29;50.81;95807.25;10441039;28;2018;-58
2023/10/12 13:31:26;;;;;;;;;;;;;;;22.29;51.42;95812.53;10442024;28;2062;-59
2023/10/12 13:36:27;;;;;;;;;;;;;;;22.31;51.07;95802.47;10435577;28;1978;-58
2023/10/12 13:41:29;;;;;;;;;;;;;;;22.31;51.17;95800.63;10437758;28;4634;-58
2023/10/12 13:46:30;;;;;;;;;;;;;;;22.30;51.16;95798.25;10438134;28;1983;-58
2023/10/12 13:51:33;;;;;;;;;;;;;;;22.30;51.25;95788.47;10436580;28;1877;-58
2023/10/12 13:56:34;;;;;;;;;;;;;;;22.29;51.28;95789.56;10437445;28;2121;-58
2023/10/12 14:01:36;;;;;;;;;;;;;;;22.28;51.26;95782.69;10438402;28;2016;-58
2023/10/12 14:06:36;;;;;;;;;;;;;;;22.28;51.40;95780.06;10434708;28;1901;-58
2023/10/12 14:11:36;;;;;;;;;;;;;;;22.29;51.21;95786.94;10433589;28;3088;-58
2023/10/12 14:16:36;;;;;;;;;;;;;;;22.28;51.05;95787.19;10432580;28;1833;-59
2023/10/12 14:21:39;;;;;;;;;;;;;;;22.27;51.26;95794.34;10435037;28;1986;-57
2023/10/12 14:26:39;;;;;;;;;;;;;;;22.27;51.34;95789.06;10437364;28;1961;-59
2023/10/12 14:31:43;;;;;;;;;;;;;;;22.25;51.03;95785.13;10433995;28;1890;-58
2023/10/12 14:36:44;;;;;;;;;;;;;;;22.25;51.32;95780.63;10435046;28;1826;-58
2023/10/12 14:41:48;;;;;;;;;;;;;;;22.24;51.29;95784.34;10430616;28;4424;-58
2023/10/12 14:46:50;;;;;;;;;;;;;;;22.24;51.33;95789.63;10432718;28;1903;-61
2023/10/12 14:51:50;;;;;;;;;;;;;;;22.24;51.17;95783.53;10428853;28;1885;-58
2023/10/12 14:56:53;;;;;;;;;;;;;;;22.24;51.21;95783.53;10431318;28;1916;-58
2023/10/12 15:01:53;;;;;;;;;;;;;;;22.23;51.21;95772.22;10434552;28;2037;-58
2023/10/12 15:06:54;;;;;;;;;;;;;;;22.24;51.54;95773.78;10438624;28;1862;-58
2023/10/12 15:11:54;;;;;;;;;;;;;;;22.24;51.57;95772.97;10434217;28;1819;-58
2023/10/12 15:16:54;;;;;;;;;;;;;;;22.22;51.72;95778.56;10434706;28;1964;-58
2023/10/12 15:21:55;;;;;;;;;;;;;;;22.23;51.46;95782.78;10440798;28;1934;-57
2023/10/12 15:26:59;;;;;;;;;;;;;;;22.22;51.30;95786.47;10440307;28;2632;-58
2023/10/12 15:31:59;;;;;;;;;;;;;;;22.22;51.34;95778.56;10437337;28;1827;-58
2023/10/12 15:37:01;;;;;;;;;;;;;;;22.24;51.45;95786.19;10434780;28;1977;-57
2023/10/12 15:42:02;;;;;;;;;;;;;;;22.23;51.73;95781.97;10437658;28;4607;-58
2023/10/12 15:47:02;;;;;;;;;;;;;;;22.22;51.66;95781.19;10434890;28;1874;-58
2023/10/12 15:52:03;;;;;;;;;;;;;;;22.23;51.88;95776.69;10429238;28;2062;-58
2023/10/12 15:57:04;;;;;;;;;;;;;;;22.23;51.69;95782.78;10436883;28;1854;-59
2023/10/12 16:02:04;;;;;;;;;;;;;;;22.23;51.55;95780.13;10428161;28;1941;-58
2023/10/12 16:07:08;;;;;;;;;;;;;;;22.23;51.73;95782.78;10433101;28;1908;-58
2023/10/12 16:12:09;;;;;;;;;;;;;;;22.23;51.91;95774.84;10429746;28;2612;-58
2023/10/12 16:17:09;;;;;;;;;;;;;;;22.24;51.55;95767.69;10428495;28;1930;-59
2023/10/12 16:22:09;;;;;;;;;;;;;;;22.23;51.54;95766.94;10435014;28;1968;-59
2023/10/12 16:27:10;;;;;;;;;;;;;;;22.23;51.55;95772.22;10434112;28;1873;-59
2023/10/12 16:32:10;;;;;;;;;;;;;;;22.22;51.65;95778.56;10437282;28;1953;-59
2023/10/12 16:37:13;;;;;;;;;;;;;;;22.22;51.91;95786.47;10438118;28;1831;-58
2023/10/12 16:42:13;;;;;;;;;;;;;;;22.22;51.54;95783.84;10440604;28;4530;-58
2023/10/12 16:47:13;;;;;;;;;;;;;;;22.22;51.69;95769.84;10444670;28;1901;-58
2023/10/12 16:52:14;;;;;;;;;;;;;;;22.21;51.48;95790.19;10446751;28;1870;-59
2023/10/12 16:57:14;;;;;;;;;;;;;;;22.22;51.42;95785.69;10441469;28;2671;-59
2023/10/12 17:02:14;;;;;;;;;;;;;;;22.21;51.50;95792.84;10440225;28;1949;-59
2023/10/12 17:07:15;;;;;;;;;;;;;;;22.23;51.66;95782.78;10438421;28;1910;-59
2023/10/12 17:12:15;;;;;;;;;;;;;;;22.27;51.21;95789.06;10439299;28;1873;-59
2023/10/12 17:17:16;;;;;;;;;;;;;;;22.28;50.76;95795.91;10440992;28;1910;-60
2023/10/12 17:22:17;;;;;;;;;;;;;;;22.32;50.94;95796.91;10442999;28;1910;-59
2023/10/12 17:27:17;;;;;;;;;;;;;;;22.35;51.21;95796.34;10442770;28;2044;-59
2023/10/12 17:32:18;;;;;;;;;;;;;;;22.36;51.36;95795.28;10443274;28;1490;-59
2023/10/12 17:37:18;;;;;;;;;;;;;;;22.38;51.32;95795.00;10443481;28;1552;-59
2023/10/12 17:42:18;;;;;;;;;;;;;;;22.40;51.04;95787.59;10438707;28;4746;-60
2023/10/12 17:47:19;;;;;;;;;;;;;;;22.42;51.20;95788.09;10444467;28;1460;-59
2023/10/12 17:52:19;;;;;;;;;;;;;;;22.43;51.10;95789.66;10437666;28;1467;-59
2023/10/12 17:57:19;;;;;;;;;;;;;;;22.44;50.60;95786.72;10438885;28;1830;-59
2023/10/12 18:02:22;;;;;;;;;;;;;;;22.45;50.78;95795.44;10445600;28;1971;-59
2023/10/12 18:07:22;;;;;;;;;;;;;;;22.45;50.85;95788.28;10440926;28;1495;-59
2023/10/12 18:12:23;;;;;;;;;;;;;;;22.54;49.94;95783.97;10444915;28;1830;-59
2023/10/12 18:17:25;;;;;;;;;;;;;;;22.49;50.68;95786.66;10443351;28;1472;-59
2023/10/12 18:22:25;;;;;;;;;;;;;;;22.52;50.56;95780.78;10443875;28;1983;-59
2023/10/12 18:27:25;;;;;;;;;;;;;;;22.58;50.28;95781.56;10445401;28;1545;-59
2023/10/12 18:32:25;;;;;;;;;;;;;;;22.54;50.80;95778.69;10432157;28;2241;-59
2023/10/12 18:37:26;;;;;;;;;;;;;;;22.54;51.25;95776.03;10433350;28;1405;-59
2023/10/12 18:42:27;;;;;;;;;;;;;;;22.55;50.95;95784.72;10438293;28;4614;-59
2023/10/12 18:47:27;;;;;;;;;;;;;;;22.55;51.06;95782.88;10441703;28;1539;-59
2023/10/12 18:52:30;;;;;;;;;;;;;;;22.57;50.86;95796.59;10441142;28;1523;-60
2023/10/12 18:57:31;;;;;;;;;;;;;;;22.57;50.77;95790.50;10437226;28;1409;-60
2023/10/12 19:02:32;;;;;;;;;;;;;;;22.56;50.79;95792.38;10440417;28;1980;-59
2023/10/12 19:07:32;;;;;;;;;;;;;;;22.56;50.77;95794.22;10450495;28;1484;-59
2023/10/12 19:12:35;;;;;;;;;;;;;;;22.56;50.79;95808.25;10433981;28;1806;-59
2023/10/12 19:17:35;;;;;;;;;;;;;;;22.56;50.62;95805.59;10437790;28;1529;-59
2023/10/12 19:22:43;;;;;;;;;;;;;;;22.56;50.60;95808.25;10439506;28;1919;-59
2023/10/12 19:27:45;;;;;;;;;;;;;;;22.56;50.79;95800.31;10436584;28;2549;-59
2023/10/12 19:32:46;;;;;;;;;;;;;;;22.57;50.45;95804.50;10440086;28;1491;-57
2023/10/12 19:37:46;;;;;;;;;;;;;;;22.56;50.54;95808.25;10438003;28;1372;-58
2023/10/12 19:42:55;;;;;;;;;;;;;;;22.58;50.63;95810.63;10441343;28;4629;-60
2023/10/12 19:47:59;;;;;;;;;;;;;;;22.57;50.65;95815.06;10436750;28;1803;-58
2023/10/12 19:53:00;;;;;;;;;;;;;;;22.58;50.31;95821.19;10431384;28;1904;-58
2023/10/12 19:58:01;;;;;;;;;;;;;;;22.56;50.59;95818.81;10434819;28;1878;-58
2023/10/12 20:08:17;;;;;;;;;;;;;;;22.50;50.45;95817.28;10438465;28;1850;-58
2023/10/12 20:13:20;;;;;;;;;;;;;;;22.47;50.76;95819.69;10434197;28;2662;-59
2023/10/12 20:18:21;;;;;;;;;;;;;;;22.43;50.43;95821.34;10435384;28;1818;-59
2023/10/12 20:23:21;;;;;;;;;;;;;;;22.41;50.46;95819.00;10431280;28;1918;-62
2023/10/12 20:28:24;;;;;;;;;;;;;;;22.40;50.37;95822.69;10431598;28;1843;-62
2023/10/12 20:33:24;;;;;;;;;;;;;;;22.36;50.35;95826.97;10433050;28;1866;-59
2023/10/12 20:38:27;;;;;;;;;;;;;;;22.35;50.63;95833.31;10436904;28;1867;-59
2023/10/12 20:43:27;;;;;;;;;;;;;;;22.34;50.59;95837.03;10433810;28;4628;-59
2023/10/12 20:48:27;;;;;;;;;;;;;;;22.31;50.23;95832.31;10430633;28;2103;-58
2023/10/12 20:53:29;;;;;;;;;;;;;;;22.30;50.18;95841.28;10430219;28;2140;-58
2023/10/12 20:58:40;;;;;;;;;;;;;;;22.29;50.19;95845.03;10435610;28;3034;-58
2023/10/12 21:03:40;;;;;;;;;;;;;;;22.29;50.39;95852.94;10435453;28;1910;-58
2023/10/12 21:08:44;;;;;;;;;;;;;;;22.27;50.29;95852.44;10436281;28;1999;-58
2023/10/12 21:13:45;;;;;;;;;;;;;;;22.26;50.37;95850.84;10436155;28;1840;-58
2023/10/12 21:18:51;;;;;;;;;;;;;;;22.26;50.35;95856.13;10437810;28;1996;-58
2023/10/12 21:23:52;;;;;;;;;;;;;;;22.24;50.32;95853.00;10440726;28;1915;-59
2023/10/12 21:28:57;;;;;;;;;;;;;;;22.25;50.63;95857.22;10437377;28;2015;-59
2023/10/12 21:34:00;;;;;;;;;;;;;;;22.27;51.37;95846.38;10441501;28;1886;-57
2023/10/12 21:39:08;;;;;;;;;;;;;;;22.27;51.41;95847.16;10439490;28;1889;-59
2023/10/12 21:44:09;;;;;;;;;;;;;;;22.27;52.13;95841.88;10440135;28;4646;-59
2023/10/12 21:49:10;;;;;;;;;;;;;;;22.28;51.99;95847.91;10441830;28;1995;-61
2023/10/12 21:54:10;;;;;;;;;;;;;;;22.26;52.30;95850.84;10439939;28;2240;-59
2023/10/12 21:59:11;;;;;;;;;;;;;;;22.24;52.01;95847.72;10437813;28;1934;-60
2023/10/12 22:04:11;;;;;;;;;;;;;;;22.25;52.13;95849.28;10443562;28;1898;-60
2023/10/12 22:09:13;;;;;;;;;;;;;;;22.25;52.40;95859.06;10443211;28;2037;-59
2023/10/12 22:19:18;;;;;;;;;;;;;;;22.23;52.31;95862.00;10441902;28;1873;-59
2023/10/12 22:24:18;;;;;;;;;;;;;;;22.23;52.40;95856.72;10434232;28;1990;-60
2023/10/12 22:29:19;;;;;;;;;;;;;;;22.23;52.45;95869.91;10436568;28;2843;-58
2023/10/12 22:34:19;;;;;;;;;;;;;;;22.22;52.17;95872.81;10439383;28;1778;-58
2023/10/12 22:39:30;;;;;;;;;;;;;;;22.22;52.04;95873.59;10434971;28;1822;-59
2023/10/12 22:44:32;;;;;;;;;;;;;;;22.22;52.28;95867.53;10433137;28;4665;-59
2023/10/12 22:49:32;;;;;;;;;;;;;;;22.21;52.32;95869.41;10439377;28;1881;-59
2023/10/12 22:54:35;;;;;;;;;;;;;;;22.22;52.11;95875.44;10438272;28;1897;-59
2023/10/12 22:59:36;;;;;;;;;;;;;;;22.22;52.28;95872.81;10431224;28;1940;-59
2023/10/12 23:04:36;;;;;;;;;;;;;;;22.20;51.86;95873.09;10435332;28;1961;-60
2023/10/12 23:09:37;;;;;;;;;;;;;;;22.21;52.16;95874.69;10437822;28;1881;-59
2023/10/12 23:14:44;;;;;;;;;;;;;;;22.21;52.08;95873.91;10440338;28;2948;-59
2023/10/12 23:19:45;;;;;;;;;;;;;;;22.20;52.25;95873.09;10442377;28;1894;-59
2023/10/12 23:24:46;;;;;;;;;;;;;;;22.20;52.14;95870.47;10430991;28;1928;-60
2023/10/12 23:29:46;;;;;;;;;;;;;;;22.19;52.08;95874.19;10438700;28;2412;-60
2023/10/12 23:34:52;;;;;;;;;;;;;;;22.20;51.82;95873.09;10436539;28;1956;-58
2023/10/12 23:39:52;;;;;;;;;;;;;;;22.20;51.83;95865.19;10435083;28;1893;-59
2023/10/12 23:44:53;;;;;;;;;;;;;;;22.20;51.71;95859.91;10433555;28;4609;-59
2023/10/12 23:55:13;;;;;;;;;;;;;;;22.20;51.96;95853.81;10437333;28;1905;-59
